Petoskey, MI

6:40 AM EDT on August 27, 2014 (GMT -0400)
Up the Hill | Change Station
CLOSE
Current Station
Personal Weather Station
Location: Petoskey, MI
Elevation: 1188 ft
Nearby Weather Stations

Elev 1188 ft 45.34 °N, 84.88 °W | Updated 21 seconds ago

Clear
Clear
53.4 °F
Feels Like 53.4 °F
N
0.0
Wind Variable Wind from SE
Gusts 0.7 mph

Today
High -- | Low -- °F
--% Chance of Precip.
Yesterday
High -- | Low -- °F
Precip. -- in
6:55 AM 8:26 PM
Waxing Crescent, 3% visible
Pressure 30.14 in
Visibility 10.0 miles
Clouds Clear
Dew Point 52 °F
Humidity 95%
Rainfall 0.00 in
Snow Depth Not available.
UV 0 out of 12
Pollen 9.70 out of 12
Ozone Good
PM2.5 Good
Flu Activity Not available.
METAR KMGN 271035Z AUTO 00000KT 10SM CLR 12/11 A3014 RMK AO2 T01260112

More Conditions Fewer Conditions

Pressure 30.14 in
Visibility 10.0 miles
Clouds Clear
Dew Point 52 °F
Humidity 95%
Rainfall 0.00 in
Snow Depth Not available.
UV 0 out of 12
Pollen 9.70 out of 12
Ozone Good
PM2.5 Good
Flu Activity Not available.
METAR KMGN 271035Z AUTO 00000KT 10SM CLR 12/11 A3014 RMK AO2 T01260112

More Conditions Fewer Conditions

Nowcast | as of 6:00 am EDT on August 27, 2014

At 7 am...cloudy. Temperature 55. Light winds. At 9 am...mostly cloudy. Sprinkles. Temperature 58. Light winds. At 11 am...mostly cloudy. Temperature 61. West winds 6 mph. At 1 PM...partly cloudy. Temperature 64. West winds 8 mph with gusts to 20 mph.

×

10-Day Weather Forecast

Almanac

Astronomy

Aug. 27, 2014 Rise Set
Actual Time 6:55 AM EDT 8:26 PM EDT
Civil Twilight 6:24 AM EDT 8:57 PM EDT
Nautical Twilight 5:46 AM EDT 9:34 PM EDT
Astronomical Twilight 5:06 AM EDT 10:14 PM EDT
Moon 8:58 AM EDT 9:09 PM EDT
Length of Visible Light 14h 32m
Length of Day
13h 31m
Tomorrow will be 3m 1s shorter.
Waxing Crescent, 3% of the Moon is Illuminated
Today
Waxing Crescent
Sep 2
First Quarter
Sep 8
Full
Sep 15
Last Quarter
Sep 24
New

Today's Extremes

State Highs State Lows

Community

WunderPhotos

Upload Photos

1,747,666 photos uploaded!

Nearby

Air Quality

  Air Quality AQ Index Pollutant
Yesterday Good
PM2.5
Yesterday Good
OZONE
Current Good
PM2.5
Current Good
OZONE
Wednesday Good
OZONE
Wednesday Good
PM2.5
Thursday Good
OZONE
Thursday Good
PM2.5
Friday Good
OZONE
Friday Good
PM2.5

Snow Depth

Station Depth Elevation
No new snow has been reported.

Earthquake Activity

City Distance Mag. Time & Date
No recent earthquake activity has been reported nearby.
Minimum magnitude displayed is 2.5.

Coastal Water Temperatures

Place Temperature
Mackinaw City, MI 62.1 °F
Port Inland, MI 66.9 °F

Nearby Weather Stations